KFUL/FUL METAR and TAF weather

Enter ICAO airport designator
Station Type Date Time Source
KFUL METAR 2019/06/26 04:53 UTC NOAA

KFUL 260453Z AUTO 22004KT 10SM OVC019 18/13 A2992 RMK AO2 SLP132 T01830133


Station Type Date Time Source
KFUL Decoded METAR 2019/06/26 04:53 UTC NOAA

FULLERTON MUNICIPAL AIRPORT , CA, United States (KFUL) 33-52N 117-59W 35M
Jun 26, 2019 - 12:53 AM EDT / 2019.06.26 0453 UTC
Wind: from the SW (220 degrees) at 5 MPH (4 KT):0
Visibility: 10 mile(s):0
Sky conditions: overcast
Temperature: 64.9 F (18.3 C)
Dew Point: 55.9 F (13.3 C)
Relative Humidity: 72%
Pressure (altimeter): 29.92 in. Hg (1013 hPa)
ob: KFUL 260453Z AUTO 22004KT 10SM OVC019 18/13 A2992 RMK AO2 SLP132 T01830133
cycle: 5

Station Type Date Time Source
KFUL TAF UTC NOAA

Error!

Example: see airport list